Scappoose, Oregon
Current Conditions -  °F | °C
As of 6:53 AM on Thursday 30 Oct 2014 (Local Time) from KSPB Reporting Station
Light Rain Light Rain  
Wind Chill: 55°   Ceiling: 4800
Heat Index: 55°   Visibility: 10mi
Dew Point: 53°   Wind: 8mph
Humidity: 93%   Direction: 240°WSW
Pressure: 29.92"   Gusts: NA
Location:  45.75°N, 122.88°W
Report Text: KSPB 301353Z AUTO 24007KT 10SM -RA BKN048 BKN060 13/12 A2992 RMK AO2 RAB53 PRESRR SLP133 P0000 T01280117
Loading
Personal Weather Stations






























Interactive Weather Map
Tropical Storm Tracking
New forecast layout! Learn more

10-Day Weather Forecast

Advertisements
Track Severe Weather on mobile